Crescent, Texas
Current Conditions -  °F | °C
As of 6:15 PM on Sunday 25 Jan 2015 (Local Time) from KARM Reporting Station
Clear Clear  
Wind Chill: 60°   Ceiling: Unl
Heat Index: 60°   Visibility: 10mi
Dew Point: 47°   Wind: 7mph
Humidity: 64%   Direction: 270°W
Pressure: 30.09"   Gusts: NA
Location:  29.2926°N, 96.034°W
Report Text: KARM 260015Z AUTO 27006KT 10SM CLR 15/09 A3009 RMK AO2 T01530086
Loading
Personal Weather Stations






























Interactive Weather Map New forecast layout! Learn more

10-Day Weather Forecast

Advertisements
Track Severe Weather on mobile